Time;durP1;ratioP1;P1;durP2;ratioP2;P2;SDS_P1;SDS_P2;PMS_P1;PMS_P2;Temp;Humidity;BMP_temperature;BMP_pressure;BME280_temperature;BME280_humidity;BME280_pressure;Samples;Min_cycle;Max_cycle;Signal;HPM_P1;HPM_P2
2021/01/14 00:02:15;;;;;;;1999.90;999.90;;;;;;;;;;5047452;28;20032;-87
2021/01/14 00:04:40;;;;;;;1999.90;999.90;;;;;;;;;;5045143;28;20420;-87
2021/01/14 00:07:05;;;;;;;1999.90;999.90;;;;;;;;;;5044653;28;20022;-87
2021/01/14 00:09:31;;;;;;;1999.90;999.90;;;;;;;;;;5046292;28;20491;-85
2021/01/14 00:11:57;;;;;;;1999.90;999.90;;;;;;;;;;5050340;28;20029;-86
2021/01/14 00:14:22;;;;;;;1999.90;999.90;;;;;;;;;;5035277;28;20033;-86
2021/01/14 00:16:48;;;;;;;1999.90;999.90;;;;;;;;;;5044582;28;20075;-87
2021/01/14 00:19:14;;;;;;;1999.90;999.90;;;;;;;;;;5037710;28;20467;-86
2021/01/14 00:21:40;;;;;;;1999.90;999.90;;;;;;;;;;5038288;28;20016;-87
2021/01/14 00:24:06;;;;;;;1999.90;999.90;;;;;;;;;;5041831;28;20394;-87
2021/01/14 00:26:31;;;;;;;1999.90;999.90;;;;;;;;;;5035358;28;20016;-86
2021/01/14 00:28:57;;;;;;;1999.90;999.90;;;;;;;;;;5042126;28;20041;-87
2021/01/14 00:31:22;;;;;;;1999.90;999.90;;;;;;;;;;5045964;28;20024;-85
2021/01/14 00:33:48;;;;;;;1999.90;999.90;;;;;;;;;;5039344;28;20037;-86
2021/01/14 00:36:13;;;;;;;1999.90;999.90;;;;;;;;;;5044138;28;20041;-87
2021/01/14 00:38:38;;;;;;;1999.90;999.90;;;;;;;;;;5049443;28;20059;-88
2021/01/14 00:41:04;;;;;;;1999.90;999.90;;;;;;;;;;5041427;28;20453;-87
2021/01/14 00:43:31;;;;;;;1999.90;999.90;;;;;;;;;;5024747;28;20436;-87
2021/01/14 00:45:57;;;;;;;1999.90;999.90;;;;;;;;;;5043578;28;20012;-87
2021/01/14 00:48:22;;;;;;;1999.90;999.90;;;;;;;;;;5041007;28;20401;-86
2021/01/14 00:50:48;;;;;;;1999.90;999.90;;;;;;;;;;5043897;28;20060;-86
2021/01/14 00:53:14;;;;;;;1999.90;999.90;;;;;;;;;;5042885;28;20030;-85
2021/01/14 00:55:39;;;;;;;1999.90;999.90;;;;;;;;;;5044966;28;20037;-87
2021/01/14 00:58:05;;;;;;;1999.90;999.90;;;;;;;;;;5040417;28;20033;-86
2021/01/14 01:00:30;;;;;;;1999.90;999.90;;;;;;;;;;5044045;28;20036;-86
2021/01/14 01:02:55;;;;;;;1999.90;999.90;;;;;;;;;;5043310;28;20140;-87
2021/01/14 01:05:21;;;;;;;1999.90;999.90;;;;;;;;;;5042330;28;20026;-86
2021/01/14 01:07:54;;;;;;;1999.90;999.90;;;;;;;;;;5047064;28;20067;-87
2021/01/14 01:10:19;;;;;;;1999.90;999.90;;;;;;;;;;5048014;28;20033;-87
2021/01/14 01:12:49;;;;;;;1999.90;999.90;;;;;;;;;;5047493;28;20017;-87
2021/01/14 01:15:15;;;;;;;1999.90;999.90;;;;;;;;;;5045450;28;20033;-86
2021/01/14 01:17:40;;;;;;;1999.90;999.90;;;;;;;;;;5042604;28;20128;-86
2021/01/14 01:20:06;;;;;;;1999.90;999.90;;;;;;;;;;5044180;28;20068;-86
2021/01/14 01:22:31;;;;;;;1999.90;999.90;;;;;;;;;;5043967;28;20013;-87
2021/01/14 01:24:57;;;;;;;1999.90;999.90;;;;;;;;;;5046344;28;20033;-87
2021/01/14 01:27:22;;;;;;;1999.90;999.90;;;;;;;;;;5050194;28;20451;-86
2021/01/14 01:29:47;;;;;;;1999.90;999.90;;;;;;;;;;5043026;28;20045;-86
2021/01/14 01:32:13;;;;;;;1999.90;999.90;;;;;;;;;;5043194;28;20020;-86
2021/01/14 01:34:39;;;;;;;1999.90;999.90;;;;;;;;;;5042921;28;20032;-86
2021/01/14 01:37:04;;;;;;;1999.90;999.90;;;;;;;;;;5047097;28;20523;-85
2021/01/14 01:39:30;;;;;;;1999.90;999.90;;;;;;;;;;5034272;28;20025;-87
2021/01/14 01:41:56;;;;;;;1999.90;999.90;;;;;;;;;;5045674;28;20025;-86
2021/01/14 01:44:23;;;;;;;1999.90;999.90;;;;;;;;;;5019731;28;20091;-86
2021/01/14 01:46:48;;;;;;;1999.90;999.90;;;;;;;;;;5046759;28;20044;-85
2021/01/14 01:49:14;;;;;;;1999.90;999.90;;;;;;;;;;5039151;28;20120;-86
2021/01/14 01:51:40;;;;;;;1999.90;999.90;;;;;;;;;;5043254;28;20048;-85
2021/01/14 01:54:06;;;;;;;1999.90;999.90;;;;;;;;;;5060539;28;20497;-86
2021/01/14 01:56:33;;;;;;;1999.90;999.90;;;;;;;;;;5045868;28;20047;-86
2021/01/14 01:58:58;;;;;;;1999.90;999.90;;;;;;;;;;5048125;28;20033;-85
2021/01/14 02:01:25;;;;;;;1999.90;999.90;;;;;;;;;;5067158;28;20044;-85
2021/01/14 02:03:50;;;;;;;1999.90;999.90;;;;;;;;;;5061332;28;20037;-86
2021/01/14 02:06:16;;;;;;;1999.90;999.90;;;;;;;;;;5060924;28;20092;-86
2021/01/14 02:08:46;;;;;;;1999.90;999.90;;;;;;;;;;5056722;28;20124;-86
2021/01/14 02:11:14;;;;;;;1999.90;999.90;;;;;;;;;;5046217;28;20556;-85
2021/01/14 02:13:42;;;;;;;1999.90;999.90;;;;;;;;;;5045511;28;20385;-86
2021/01/14 02:16:08;;;;;;;1999.90;999.90;;;;;;;;;;5046946;28;20021;-86
2021/01/14 02:18:34;;;;;;;1999.90;999.90;;;;;;;;;;5039368;28;20083;-86
2021/01/14 02:21:00;;;;;;;1999.90;999.90;;;;;;;;;;5041236;28;20052;-85
2021/01/14 02:23:37;;;;;;;1999.90;999.90;;;;;;;;;;5041145;28;20029;-85
2021/01/14 02:26:16;;;;;;;1999.90;999.90;;;;;;;;;;5043786;28;20435;-87
2021/01/14 02:28:43;;;;;;;1999.90;999.90;;;;;;;;;;5023358;28;20505;-86
2021/01/14 02:31:08;;;;;;;1999.90;999.90;;;;;;;;;;5047822;28;20020;-86
2021/01/14 02:33:34;;;;;;;1999.90;999.90;;;;;;;;;;5042761;28;20405;-85
2021/01/14 02:36:00;;;;;;;1999.90;999.90;;;;;;;;;;5042658;28;20020;-87
2021/01/14 02:38:25;;;;;;;1999.90;999.90;;;;;;;;;;5042492;28;20109;-85
2021/01/14 02:40:51;;;;;;;1999.90;999.90;;;;;;;;;;5040972;28;20497;-87
2021/01/14 02:43:16;;;;;;;1999.90;999.90;;;;;;;;;;5047181;28;20044;-86
2021/01/14 02:45:42;;;;;;;1999.90;999.90;;;;;;;;;;5045339;28;20018;-85
2021/01/14 02:48:09;;;;;;;1999.90;999.90;;;;;;;;;;5029514;28;20536;-85
2021/01/14 02:50:37;;;;;;;1999.90;999.90;;;;;;;;;;5040987;28;20024;-86
2021/01/14 02:53:03;;;;;;;1999.90;999.90;;;;;;;;;;5042226;28;20040;-86
2021/01/14 02:55:29;;;;;;;1999.90;999.90;;;;;;;;;;5043631;28;20022;-86
2021/01/14 02:57:54;;;;;;;1999.90;999.90;;;;;;;;;;5046411;28;20035;-85
2021/01/14 03:00:20;;;;;;;1999.90;999.90;;;;;;;;;;5045493;28;20076;-85
2021/01/14 03:02:45;;;;;;;1999.90;999.90;;;;;;;;;;5043932;28;20030;-85
2021/01/14 03:05:11;;;;;;;1999.90;999.90;;;;;;;;;;5042373;28;20017;-86
2021/01/14 03:07:36;;;;;;;1999.90;999.90;;;;;;;;;;5044205;28;20025;-87
2021/01/14 03:10:02;;;;;;;1999.90;999.90;;;;;;;;;;5046484;28;20033;-85
2021/01/14 03:12:27;;;;;;;1999.90;999.90;;;;;;;;;;5041606;28;20026;-85
2021/01/14 03:14:53;;;;;;;1999.90;999.90;;;;;;;;;;5043033;28;20022;-86
2021/01/14 03:17:18;;;;;;;1999.90;999.90;;;;;;;;;;5027797;28;20544;-85
2021/01/14 03:19:43;;;;;;;1999.90;999.90;;;;;;;;;;5041970;28;20017;-85
2021/01/14 03:22:09;;;;;;;1999.90;999.90;;;;;;;;;;5041905;28;20040;-85
2021/01/14 03:24:34;;;;;;;1999.90;999.90;;;;;;;;;;5042658;28;20021;-84
2021/01/14 03:27:00;;;;;;;1999.90;999.90;;;;;;;;;;5042969;28;20378;-86
2021/01/14 03:29:25;;;;;;;1999.90;999.90;;;;;;;;;;5045851;28;20057;-86
2021/01/14 03:31:50;;;;;;;1999.90;999.90;;;;;;;;;;5046088;28;20025;-85
2021/01/14 03:34:16;;;;;;;1999.90;999.90;;;;;;;;;;5048470;28;20074;-85
2021/01/14 03:36:56;;;;;;;1999.90;999.90;;;;;;;;;;5038345;28;20033;-87
2021/01/14 03:39:25;;;;;;;1999.90;999.90;;;;;;;;;;5044680;28;20037;-85
2021/01/14 03:41:51;;;;;;;1999.90;999.90;;;;;;;;;;5043721;28;20028;-85
2021/01/14 03:44:16;;;;;;;1999.90;999.90;;;;;;;;;;5045469;28;20052;-85
2021/01/14 03:46:44;;;;;;;1999.90;999.90;;;;;;;;;;5041927;28;20060;-85
2021/01/14 03:49:10;;;;;;;1999.90;999.90;;;;;;;;;;5042677;28;20038;-86
2021/01/14 03:51:35;;;;;;;1999.90;999.90;;;;;;;;;;5046173;28;20100;-85
2021/01/14 03:54:01;;;;;;;1999.90;999.90;;;;;;;;;;5047781;28;20035;-87
2021/01/14 03:56:26;;;;;;;1999.90;999.90;;;;;;;;;;4926480;28;3330817;-85
2021/01/14 03:58:51;;;;;;;1999.90;999.90;;;;;;;;;;5045315;28;20119;-85
2021/01/14 04:01:20;;;;;;;1999.90;999.90;;;;;;;;;;5045960;28;20484;-85
2021/01/14 04:03:45;;;;;;;1999.90;999.90;;;;;;;;;;5039156;28;20032;-85
2021/01/14 04:06:11;;;;;;;1999.90;999.90;;;;;;;;;;5041972;28;20040;-84
2021/01/14 04:08:37;;;;;;;1999.90;999.90;;;;;;;;;;5040607;28;20045;-85
2021/01/14 04:11:03;;;;;;;1999.90;999.90;;;;;;;;;;5047470;28;20036;-86
2021/01/14 04:13:28;;;;;;;1999.90;999.90;;;;;;;;;;5046408;28;20033;-86
2021/01/14 04:15:53;;;;;;;1999.90;999.90;;;;;;;;;;5045849;28;20100;-85
2021/01/14 04:18:19;;;;;;;1999.90;999.90;;;;;;;;;;5041768;28;20035;-85
2021/01/14 04:20:44;;;;;;;1999.90;999.90;;;;;;;;;;5040129;28;20052;-86
2021/01/14 04:23:10;;;;;;;1999.90;999.90;;;;;;;;;;5037074;28;20402;-85
2021/01/14 04:25:35;;;;;;;1999.90;999.90;;;;;;;;;;5042427;28;20013;-86
2021/01/14 04:28:01;;;;;;;1999.90;999.90;;;;;;;;;;5044197;28;20041;-85
2021/01/14 04:30:27;;;;;;;1999.90;999.90;;;;;;;;;;5044804;28;20473;-86
2021/01/14 04:33:15;;;;;;;1999.90;999.90;;;;;;;;;;5044447;28;20032;-87
2021/01/14 04:35:50;;;;;;;1999.90;999.90;;;;;;;;;;5047237;28;20053;-87
2021/01/14 04:38:16;;;;;;;1999.90;999.90;;;;;;;;;;5043831;28;20061;-85
2021/01/14 04:40:42;;;;;;;1999.90;999.90;;;;;;;;;;5042657;28;20057;-85
2021/01/14 04:43:09;;;;;;;1999.90;999.90;;;;;;;;;;5044322;28;20544;-86
2021/01/14 04:45:35;;;;;;;1999.90;999.90;;;;;;;;;;5033892;28;20029;-87
2021/01/14 04:48:01;;;;;;;1999.90;999.90;;;;;;;;;;5033677;28;20032;-86
2021/01/14 04:50:27;;;;;;;1999.90;999.90;;;;;;;;;;5038681;28;20544;-86
2021/01/14 04:52:54;;;;;;;1999.90;999.90;;;;;;;;;;5039134;28;20437;-86
2021/01/14 04:55:21;;;;;;;1999.90;999.90;;;;;;;;;;5046617;28;20503;-86
2021/01/14 04:57:49;;;;;;;1999.90;999.90;;;;;;;;;;5043681;28;20040;-85
2021/01/14 05:00:16;;;;;;;1999.90;999.90;;;;;;;;;;5042697;28;20025;-85
2021/01/14 05:02:52;;;;;;;1999.90;999.90;;;;;;;;;;5039976;28;20531;-86
2021/01/14 05:05:20;;;;;;;1999.90;999.90;;;;;;;;;;5043244;28;20481;-86
2021/01/14 05:07:47;;;;;;;1999.90;999.90;;;;;;;;;;5043911;28;20018;-85
2021/01/14 05:10:18;;;;;;;1999.90;999.90;;;;;;;;;;5040017;28;20480;-85
2021/01/14 05:12:43;;;;;;;1999.90;999.90;;;;;;;;;;5039835;28;20025;-85
2021/01/14 05:15:09;;;;;;;1999.90;999.90;;;;;;;;;;5044311;28;20032;-86
2021/01/14 05:17:34;;;;;;;1999.90;999.90;;;;;;;;;;5038899;28;20033;-86
2021/01/14 05:20:00;;;;;;;1999.90;999.90;;;;;;;;;;5036901;28;20100;-85
2021/01/14 05:22:25;;;;;;;1999.90;999.90;;;;;;;;;;5024052;28;20021;-86
2021/01/14 05:25:03;;;;;;;1999.90;999.90;;;;;;;;;;5043542;28;20342;-85
2021/01/14 05:27:28;;;;;;;1999.90;999.90;;;;;;;;;;5030330;28;20028;-85
2021/01/14 05:30:06;;;;;;;1999.90;999.90;;;;;;;;;;5039797;28;20540;-86
2021/01/14 05:32:32;;;;;;;1999.90;999.90;;;;;;;;;;5043524;28;20024;-85
2021/01/14 05:34:57;;;;;;;1999.90;999.90;;;;;;;;;;5041833;28;20100;-85
2021/01/14 05:37:23;;;;;;;1999.90;999.90;;;;;;;;;;5045642;28;20109;-85
2021/01/14 05:39:49;;;;;;;1999.90;999.90;;;;;;;;;;5042813;28;20425;-85
2021/01/14 05:42:16;;;;;;;1999.90;999.90;;;;;;;;;;5040063;28;20036;-85
2021/01/14 05:44:42;;;;;;;1999.90;999.90;;;;;;;;;;5036925;28;20025;-85
2021/01/14 05:47:18;;;;;;;1999.90;999.90;;;;;;;;;;5045081;28;20469;-85
2021/01/14 05:50:10;;;;;;;1999.90;999.90;;;;;;;;;;5045987;28;20079;-85
2021/01/14 05:52:35;;;;;;;1999.90;999.90;;;;;;;;;;5036255;28;20051;-86
2021/01/14 05:55:01;;;;;;;1999.90;999.90;;;;;;;;;;5041920;28;20134;-85
2021/01/14 05:57:30;;;;;;;1999.90;999.90;;;;;;;;;;5036587;28;20046;-85
2021/01/14 05:59:57;;;;;;;1999.90;999.90;;;;;;;;;;5036801;28;20029;-86
2021/01/14 06:02:29;;;;;;;1999.90;999.90;;;;;;;;;;5036610;28;20021;-84
2021/01/14 06:04:55;;;;;;;1999.90;999.90;;;;;;;;;;5036001;28;20466;-85
2021/01/14 06:07:22;;;;;;;1999.90;999.90;;;;;;;;;;5041890;28;20073;-86
2021/01/14 06:09:48;;;;;;;1999.90;999.90;;;;;;;;;;5048660;28;20045;-84
2021/01/14 06:12:17;;;;;;;1999.90;999.90;;;;;;;;;;5043150;28;20016;-85
2021/01/14 06:14:42;;;;;;;1999.90;999.90;;;;;;;;;;5043953;28;20186;-86
2021/01/14 06:17:09;;;;;;;1999.90;999.90;;;;;;;;;;5043327;28;20041;-89
2021/01/14 06:19:35;;;;;;;1999.90;999.90;;;;;;;;;;5043290;28;20033;-87
2021/01/14 06:22:01;;;;;;;1999.90;999.90;;;;;;;;;;5040410;28;20106;-85
2021/01/14 06:24:28;;;;;;;1999.90;999.90;;;;;;;;;;5042647;28;20025;-86
2021/01/14 06:26:54;;;;;;;1999.90;999.90;;;;;;;;;;5038584;28;20486;-86
2021/01/14 06:29:20;;;;;;;1999.90;999.90;;;;;;;;;;5035687;28;20045;-85
2021/01/14 06:31:46;;;;;;;1999.90;999.90;;;;;;;;;;5037065;28;20361;-86
2021/01/14 06:34:14;;;;;;;1999.90;999.90;;;;;;;;;;5039680;28;20040;-86
2021/01/14 06:36:39;;;;;;;1999.90;999.90;;;;;;;;;;5040205;28;20079;-85
2021/01/14 06:39:10;;;;;;;1999.90;999.90;;;;;;;;;;5037896;28;20037;-84
2021/01/14 06:41:37;;;;;;;1999.90;999.90;;;;;;;;;;5037093;28;20037;-84
2021/01/14 06:44:04;;;;;;;1999.90;999.90;;;;;;;;;;5046510;28;20025;-82
2021/01/14 06:46:32;;;;;;;1999.90;999.90;;;;;;;;;;5040819;28;20033;-83
2021/01/14 06:49:11;;;;;;;1999.90;999.90;;;;;;;;;;5026734;28;20104;-82
2021/01/14 06:51:51;;;;;;;1999.90;999.90;;;;;;;;;;5042245;28;20021;-82
2021/01/14 06:54:17;;;;;;;1999.90;999.90;;;;;;;;;;5046341;28;20049;-82
2021/01/14 06:56:46;;;;;;;1999.90;999.90;;;;;;;;;;5047102;28;20041;-83
2021/01/14 06:59:14;;;;;;;1999.90;999.90;;;;;;;;;;5046862;28;20068;-83
2021/01/14 07:01:44;;;;;;;1999.90;999.90;;;;;;;;;;5030152;28;20024;-82
2021/01/14 07:04:12;;;;;;;1999.90;999.90;;;;;;;;;;5045261;28;20059;-79
2021/01/14 07:06:43;;;;;;;1999.90;999.90;;;;;;;;;;5043538;28;20035;-81
2021/01/14 07:09:17;;;;;;;1999.90;999.90;;;;;;;;;;5047774;28;20045;-80
2021/01/14 07:11:42;;;;;;;1999.90;999.90;;;;;;;;;;5044534;28;20096;-80
2021/01/14 07:14:11;;;;;;;1999.90;999.90;;;;;;;;;;5048399;28;20104;-81
2021/01/14 07:16:40;;;;;;;1999.90;999.90;;;;;;;;;;5047670;28;20037;-81
2021/01/14 07:19:05;;;;;;;1999.90;999.90;;;;;;;;;;5048094;28;20055;-81
2021/01/14 07:21:35;;;;;;;1999.90;999.90;;;;;;;;;;5036083;28;20072;-81
2021/01/14 07:24:07;;;;;;;1999.90;999.90;;;;;;;;;;5040442;28;20025;-82
2021/01/14 07:26:33;;;;;;;1999.90;999.90;;;;;;;;;;5032385;28;20037;-82
2021/01/14 07:29:00;;;;;;;1999.90;999.90;;;;;;;;;;5043769;28;20039;-83
2021/01/14 07:31:27;;;;;;;1999.90;999.90;;;;;;;;;;5041590;28;20056;-80
2021/01/14 07:33:53;;;;;;;1999.90;999.90;;;;;;;;;;5044972;28;20075;-82
2021/01/14 07:36:19;;;;;;;1999.90;999.90;;;;;;;;;;5048663;28;20055;-82
2021/01/14 07:38:46;;;;;;;1999.90;999.90;;;;;;;;;;5031237;28;20025;-84
2021/01/14 07:41:12;;;;;;;1999.90;999.90;;;;;;;;;;5031647;28;20025;-81
2021/01/14 07:43:37;;;;;;;1999.90;999.90;;;;;;;;;;5041838;28;20465;-82
2021/01/14 07:46:14;;;;;;;1999.90;999.90;;;;;;;;;;5032764;28;20054;-83
2021/01/14 07:48:39;;;;;;;1999.90;999.90;;;;;;;;;;5036983;28;20078;-87
2021/01/14 07:51:06;;;;;;;1999.90;999.90;;;;;;;;;;5046142;28;20021;-81
2021/01/14 07:53:31;;;;;;;1999.90;999.90;;;;;;;;;;5045811;28;20052;-81
2021/01/14 07:56:16;;;;;;;1999.90;999.90;;;;;;;;;;5043429;28;20489;-75
2021/01/14 07:58:45;;;;;;;1999.90;999.90;;;;;;;;;;5045570;28;20048;-84
2021/01/14 08:01:10;;;;;;;1999.90;999.90;;;;;;;;;;5040725;28;20106;-83
2021/01/14 08:03:37;;;;;;;1999.90;999.90;;;;;;;;;;5052698;28;20065;-84
2021/01/14 08:06:35;;;;;;;1999.90;999.90;;;;;;;;;;5045399;28;20032;-82
2021/01/14 08:09:04;;;;;;;1999.90;999.90;;;;;;;;;;5012390;28;20468;-83
2021/01/14 08:11:33;;;;;;;1999.90;999.90;;;;;;;;;;5056737;28;20026;-84
2021/01/14 08:13:58;;;;;;;1999.90;999.90;;;;;;;;;;5068930;28;20033;-80
2021/01/14 08:16:34;;;;;;;1999.90;999.90;;;;;;;;;;5065173;28;20048;-83
2021/01/14 08:19:16;;;;;;;1999.90;999.90;;;;;;;;;;5064942;28;20034;-83
2021/01/14 08:21:42;;;;;;;1999.90;999.90;;;;;;;;;;5065312;28;20056;-82
2021/01/14 08:24:08;;;;;;;1999.90;999.90;;;;;;;;;;5061298;28;20457;-83
2021/01/14 08:26:52;;;;;;;1999.90;999.90;;;;;;;;;;5034737;28;20025;-83
2021/01/14 08:29:51;;;;;;;1999.90;999.90;;;;;;;;;;5039324;28;20496;-83
2021/01/14 08:32:25;;;;;;;1999.90;999.90;;;;;;;;;;5003765;28;20041;-83
2021/01/14 08:34:52;;;;;;;1999.90;999.90;;;;;;;;;;5043014;28;20180;-83
2021/01/14 08:37:27;;;;;;;1999.90;999.90;;;;;;;;;;5046181;28;20067;-84
2021/01/14 08:39:52;;;;;;;1999.90;999.90;;;;;;;;;;5048590;28;20068;-84
2021/01/14 08:42:28;;;;;;;1999.90;999.90;;;;;;;;;;5040889;28;20056;-84
2021/01/14 08:44:54;;;;;;;1999.90;999.90;;;;;;;;;;5024779;28;20036;-83
2021/01/14 08:47:19;;;;;;;1999.90;999.90;;;;;;;;;;5043362;28;20025;-83
2021/01/14 08:49:46;;;;;;;1999.90;999.90;;;;;;;;;;5044049;28;20500;-84
2021/01/14 08:52:13;;;;;;;1999.90;999.90;;;;;;;;;;5038870;28;20108;-82
2021/01/14 08:54:41;;;;;;;1999.90;999.90;;;;;;;;;;5045089;28;20025;-83
2021/01/14 08:57:06;;;;;;;1999.90;999.90;;;;;;;;;;5043439;28;20412;-85
2021/01/14 08:59:32;;;;;;;1999.90;999.90;;;;;;;;;;5033194;28;20029;-84
2021/01/14 09:01:57;;;;;;;1999.90;999.90;;;;;;;;;;5050824;28;20010;-81
2021/01/14 09:04:25;;;;;;;1999.90;999.90;;;;;;;;;;5051759;28;20029;-81
2021/01/14 09:06:50;;;;;;;1999.90;999.90;;;;;;;;;;5051089;28;20035;-83
2021/01/14 09:09:16;;;;;;;1999.90;999.90;;;;;;;;;;5063732;28;20112;-83
2021/01/14 09:11:42;;;;;;;1999.90;999.90;;;;;;;;;;5052572;28;20021;-86
2021/01/14 09:14:08;;;;;;;1999.90;999.90;;;;;;;;;;5059379;28;20080;-85
2021/01/14 09:16:34;;;;;;;1999.90;999.90;;;;;;;;;;5057957;28;20021;-87
2021/01/14 09:18:59;;;;;;;1999.90;999.90;;;;;;;;;;5046092;28;20025;-86
2021/01/14 09:21:25;;;;;;;1999.90;999.90;;;;;;;;;;5049449;28;20025;-84
2021/01/14 09:23:51;;;;;;;1999.90;999.90;;;;;;;;;;5043884;28;20067;-82
2021/01/14 09:26:20;;;;;;;1999.90;999.90;;;;;;;;;;5036555;28;20025;-81
2021/01/14 09:28:53;;;;;;;1999.90;999.90;;;;;;;;;;5042887;28;20037;-82
2021/01/14 09:31:21;;;;;;;1999.90;999.90;;;;;;;;;;5039661;28;20504;-83
2021/01/14 09:33:48;;;;;;;1999.90;999.90;;;;;;;;;;5041728;28;20023;-87
2021/01/14 09:36:17;;;;;;;1999.90;999.90;;;;;;;;;;5023430;28;20099;-86
2021/01/14 09:38:54;;;;;;;1999.90;999.90;;;;;;;;;;5048818;28;20029;-84
2021/01/14 09:41:29;;;;;;;1999.90;999.90;;;;;;;;;;5026124;28;20033;-84
2021/01/14 09:43:58;;;;;;;1999.90;999.90;;;;;;;;;;5047726;28;20040;-82
2021/01/14 09:46:28;;;;;;;1999.90;999.90;;;;;;;;;;5044080;28;20063;-86
2021/01/14 09:48:58;;;;;;;1999.90;999.90;;;;;;;;;;5006844;28;20068;-85
2021/01/14 09:51:23;;;;;;;1999.90;999.90;;;;;;;;;;5044684;28;20029;-86
2021/01/14 09:53:49;;;;;;;1999.90;999.90;;;;;;;;;;5044481;28;20012;-87
2021/01/14 09:56:20;;;;;;;1999.90;999.90;;;;;;;;;;5046118;28;20087;-85
2021/01/14 09:58:47;;;;;;;1999.90;999.90;;;;;;;;;;5042088;28;20297;-83
2021/01/14 10:01:15;;;;;;;1999.90;999.90;;;;;;;;;;5043951;28;20195;-84
2021/01/14 10:03:45;;;;;;;1999.90;999.90;;;;;;;;;;5037114;28;20585;-88
2021/01/14 10:06:10;;;;;;;1999.90;999.90;;;;;;;;;;5042593;28;20033;-86
2021/01/14 10:08:37;;;;;;;1999.90;999.90;;;;;;;;;;5032597;28;20477;-84
2021/01/14 10:11:03;;;;;;;1999.90;999.90;;;;;;;;;;5028582;28;20036;-79
2021/01/14 10:13:28;;;;;;;1999.90;999.90;;;;;;;;;;5046010;28;20029;-89
2021/01/14 10:16:07;;;;;;;1999.90;999.90;;;;;;;;;;5047122;28;20041;-87
2021/01/14 10:18:33;;;;;;;1999.90;999.90;;;;;;;;;;5023302;28;20022;-78
2021/01/14 10:20:59;;;;;;;1999.90;999.90;;;;;;;;;;5040380;28;20105;-86
2021/01/14 10:23:25;;;;;;;1999.90;999.90;;;;;;;;;;5041244;28;20030;-84
2021/01/14 10:25:51;;;;;;;1999.90;999.90;;;;;;;;;;5041193;28;20104;-83
2021/01/14 10:28:18;;;;;;;1999.90;999.90;;;;;;;;;;5040996;28;20120;-84
2021/01/14 10:30:43;;;;;;;1999.90;999.90;;;;;;;;;;5040115;28;20048;-83
2021/01/14 10:33:09;;;;;;;1999.90;999.90;;;;;;;;;;5042602;28;20025;-83
2021/01/14 10:35:35;;;;;;;1999.90;999.90;;;;;;;;;;5038170;28;20692;-83
2021/01/14 10:38:02;;;;;;;1999.90;999.90;;;;;;;;;;5038658;28;20482;-82
2021/01/14 10:40:32;;;;;;;1999.90;999.90;;;;;;;;;;5042518;28;20021;-84
2021/01/14 10:42:57;;;;;;;1999.90;999.90;;;;;;;;;;5045043;28;20021;-84
2021/01/14 10:45:24;;;;;;;1999.90;999.90;;;;;;;;;;5039217;28;20485;-83
2021/01/14 10:47:49;;;;;;;1999.90;999.90;;;;;;;;;;5020567;28;20033;-83
2021/01/14 10:50:20;;;;;;;1999.90;999.90;;;;;;;;;;5040670;28;20040;-83
2021/01/14 10:52:52;;;;;;;1999.90;999.90;;;;;;;;;;5035600;28;20075;-84
2021/01/14 10:55:18;;;;;;;1999.90;999.90;;;;;;;;;;5043840;28;20025;-82
2021/01/14 10:57:54;;;;;;;1999.90;999.90;;;;;;;;;;5039392;28;20036;-73
2021/01/14 11:00:20;;;;;;;1999.90;999.90;;;;;;;;;;5042041;28;20017;-89
2021/01/14 11:02:46;;;;;;;1999.90;999.90;;;;;;;;;;5028725;28;20060;-89
2021/01/14 11:05:14;;;;;;;1999.90;999.90;;;;;;;;;;5049745;28;20387;-88
2021/01/14 11:07:40;;;;;;;1999.90;999.90;;;;;;;;;;5041678;28;20017;-86
2021/01/14 11:10:06;;;;;;;1999.90;999.90;;;;;;;;;;5045233;28;20041;-86
2021/01/14 11:12:31;;;;;;;1999.90;999.90;;;;;;;;;;5042332;28;20104;-85
2021/01/14 11:14:57;;;;;;;1999.90;999.90;;;;;;;;;;5041720;28;20162;-80
2021/01/14 11:17:24;;;;;;;1999.90;999.90;;;;;;;;;;5027444;28;20063;-90
2021/01/14 11:19:50;;;;;;;1999.90;999.90;;;;;;;;;;5046355;28;20034;-78
2021/01/14 11:22:16;;;;;;;1999.90;999.90;;;;;;;;;;5039820;28;20028;-78
2021/01/14 11:24:41;;;;;;;1999.90;999.90;;;;;;;;;;5043530;28;20411;-81
2021/01/14 11:27:07;;;;;;;1999.90;999.90;;;;;;;;;;5044941;28;20106;-80
2021/01/14 11:29:33;;;;;;;1999.90;999.90;;;;;;;;;;5048095;28;20037;-80
2021/01/14 11:31:59;;;;;;;1999.90;999.90;;;;;;;;;;5046635;28;20122;-81
2021/01/14 11:34:25;;;;;;;1999.90;999.90;;;;;;;;;;5043406;28;20038;-81
2021/01/14 11:36:50;;;;;;;1999.90;999.90;;;;;;;;;;5042864;28;20112;-79
2021/01/14 11:39:16;;;;;;;1999.90;999.90;;;;;;;;;;5041846;28;20027;-80
2021/01/14 11:41:41;;;;;;;1999.90;999.90;;;;;;;;;;5046973;28;20071;-80
2021/01/14 11:44:06;;;;;;;1999.90;999.90;;;;;;;;;;5042717;28;20036;-81
2021/01/14 11:46:32;;;;;;;1999.90;999.90;;;;;;;;;;5042405;28;20086;-82
2021/01/14 11:48:57;;;;;;;1999.90;999.90;;;;;;;;;;5046235;28;20037;-80
2021/01/14 11:51:23;;;;;;;1999.90;999.90;;;;;;;;;;5043176;28;20476;-86
2021/01/14 11:53:48;;;;;;;1999.90;999.90;;;;;;;;;;5042846;28;20037;-87
2021/01/14 11:56:15;;;;;;;1999.90;999.90;;;;;;;;;;5043272;28;20045;-94
2021/01/14 11:58:41;;;;;;;1999.90;999.90;;;;;;;;;;5038031;28;20457;-92
2021/01/14 12:01:08;;;;;;;1999.90;999.90;;;;;;;;;;5041798;28;20040;-85
2021/01/14 12:03:34;;;;;;;1999.90;999.90;;;;;;;;;;5046161;28;20025;-94
2021/01/14 12:06:00;;;;;;;1999.90;999.90;;;;;;;;;;5053361;28;20021;-85
2021/01/14 12:08:25;;;;;;;1999.90;999.90;;;;;;;;;;5023331;28;20041;-69
2021/01/14 12:10:51;;;;;;;1999.90;999.90;;;;;;;;;;5046632;28;20030;-85
2021/01/14 12:13:17;;;;;;;1999.90;999.90;;;;;;;;;;5039970;28;20063;-84
2021/01/14 12:15:42;;;;;;;1999.90;999.90;;;;;;;;;;5042990;28;20032;-84
2021/01/14 12:18:08;;;;;;;1999.90;999.90;;;;;;;;;;5045179;28;20040;-85
2021/01/14 12:20:33;;;;;;;1999.90;999.90;;;;;;;;;;5049785;28;20021;-85
2021/01/14 12:22:58;;;;;;;1999.90;999.90;;;;;;;;;;5025104;28;20041;-84
2021/01/14 12:25:24;;;;;;;1999.90;999.90;;;;;;;;;;5026269;28;20050;-87
2021/01/14 12:27:49;;;;;;;1999.90;999.90;;;;;;;;;;5048929;28;20063;-90
2021/01/14 12:30:16;;;;;;;1999.90;999.90;;;;;;;;;;5050814;28;20040;-90
2021/01/14 12:32:42;;;;;;;1999.90;999.90;;;;;;;;;;5043688;28;20057;-91
2021/01/14 12:35:07;;;;;;;1999.90;999.90;;;;;;;;;;5028730;28;20104;-90
2021/01/14 12:37:36;;;;;;;1999.90;999.90;;;;;;;;;;5046365;28;20028;-91
2021/01/14 12:40:06;;;;;;;1999.90;999.90;;;;;;;;;;5048522;28;20023;-91
2021/01/14 12:42:31;;;;;;;1999.90;999.90;;;;;;;;;;5044345;28;20052;-90
2021/01/14 12:44:57;;;;;;;1999.90;999.90;;;;;;;;;;5048466;28;20017;-89
2021/01/14 12:47:22;;;;;;;1999.90;999.90;;;;;;;;;;5049508;28;20029;-90
2021/01/14 12:49:49;;;;;;;1999.90;999.90;;;;;;;;;;5032752;28;20020;-89
2021/01/14 12:52:15;;;;;;;1999.90;999.90;;;;;;;;;;5054504;28;20655;-90
2021/01/14 12:54:40;;;;;;;1999.90;999.90;;;;;;;;;;5049322;28;20025;-92
2021/01/14 12:57:06;;;;;;;1999.90;999.90;;;;;;;;;;5054977;28;20127;-92
2021/01/14 12:59:31;;;;;;;1999.90;999.90;;;;;;;;;;5045331;28;20036;-90
2021/01/14 13:01:57;;;;;;;1999.90;999.90;;;;;;;;;;5045707;28;20056;-90
2021/01/14 13:04:22;;;;;;;1999.90;999.90;;;;;;;;;;5048436;28;20104;-91
2021/01/14 13:06:48;;;;;;;1999.90;999.90;;;;;;;;;;5049599;28;20036;-92
2021/01/14 13:09:13;;;;;;;1999.90;999.90;;;;;;;;;;5048433;28;20044;-91
2021/01/14 13:11:40;;;;;;;1999.90;999.90;;;;;;;;;;5038371;28;20029;-91
2021/01/14 13:14:06;;;;;;;1999.90;999.90;;;;;;;;;;5050385;28;20020;-90
2021/01/14 13:16:32;;;;;;;1999.90;999.90;;;;;;;;;;5047516;28;20033;-92
2021/01/14 13:18:58;;;;;;;1999.90;999.90;;;;;;;;;;5050059;28;20017;-89
2021/01/14 13:21:33;;;;;;;1999.90;999.90;;;;;;;;;;5045235;28;20516;-92
2021/01/14 13:23:59;;;;;;;1999.90;999.90;;;;;;;;;;5044635;28;20025;-91
2021/01/14 13:26:24;;;;;;;1999.90;999.90;;;;;;;;;;5044560;28;20036;-90
2021/01/14 13:28:51;;;;;;;1999.90;999.90;;;;;;;;;;5040460;28;20048;-89
2021/01/14 13:31:16;;;;;;;1999.90;999.90;;;;;;;;;;5023612;28;20032;-88
2021/01/14 13:33:42;;;;;;;1999.90;999.90;;;;;;;;;;5042990;28;20526;-88
2021/01/14 13:36:07;;;;;;;1999.90;999.90;;;;;;;;;;5046346;28;20155;-88
2021/01/14 13:38:32;;;;;;;1999.90;999.90;;;;;;;;;;5045096;28;20086;-88
2021/01/14 13:40:58;;;;;;;1999.90;999.90;;;;;;;;;;5043000;28;20103;-90
2021/01/14 13:43:23;;;;;;;1999.90;999.90;;;;;;;;;;5054112;28;20032;-91